Aviation Digital Data Service (ADDS)

Output produced by METARs form (1033 UTC 07 December 2016)
found at http://aviationweather.gov/adds/metars/
 
KISO 070902Z 0709/0806 30005KT P6SM OVC007 
     FM071200 34005KT P6SM SCT007 BKN030 
     FM071400 35006KT P6SM SCT030 
     FM072300 VRB03KT P6SM SCT030 AMD LTD TO VIS AND WIND